Station Historical Data
Daily Summary for January 4, 2018 Units:  Both    English   Metric
« Previous Day
Next Day »
Daily Weekly Monthly Yearly Custom
  High: Low: Average:
Temperature: 18.2 °F /  -7.7 °C 3.5 °F /  -15.8 °C 13.3 °F /  -10.4 °C
Dew Point: 13.9 °F /  -10.1 °C -1.6 °F /  -18.7 °C 7.6 °F /  -13.6 °C
Humidity: 83% 69% 78%
Wind Speed: 12.0mph /  19.3km/h - 4.9mph /  7.9km/h
Wind Gust: 20.0mph /  32.2km/h - -
Wind- - WNW
Pressure: 30.00 in /  1015.8 hPa 29.87 in /  1011.4 hPa -
Precipitation: 0.00 in /  0 mm    
Historical Graphs
 
 
Tabular Data for January 4, 2018
Time Temperature Dew Point Pressure Wind Wind Speed Wind Gust Humidity Rainfall Rate (Hourly)
00:09 18.2 °F /  -7.7 °C 13.9 °F /  -10.1 °C 30.00in /  1015.8hPa West 2.0mph /  3.2km/h 7.0mph /  11.3km/h 83% 0.00in /  0mm
00:14 18.0 °F /  -7.8 °C 13.7 °F /  -10.2 °C 30.00in /  1015.8hPa WNW 2.0mph /  3.2km/h 5.0mph /  8km/h 83% 0.00in /  0mm
00:19 17.9 °F /  -7.8 °C 13.6 °F /  -10.2 °C 30.00in /  1015.8hPa West 3.0mph /  4.8km/h 5.0mph /  8km/h 83% 0.00in /  0mm
00:24 17.8 °F /  -7.9 °C 13.5 °F /  -10.3 °C 29.99in /  1015.5hPa West 2.0mph /  3.2km/h 5.0mph /  8km/h 83% 0.00in /  0mm
00:29 17.7 °F /  -7.9 °C 13.1 °F /  -10.5 °C 30.00in /  1015.8hPa West 3.0mph /  4.8km/h 6.0mph /  9.7km/h 82% 0.00in /  0mm
00:34 17.7 °F /  -7.9 °C 13.1 °F /  -10.5 °C 30.00in /  1015.8hPa WSW 2.0mph /  3.2km/h 6.0mph /  9.7km/h 82% 0.00in /  0mm
00:39 17.7 °F /  -7.9 °C 13.1 °F /  -10.5 °C 30.00in /  1015.8hPa WSW 2.0mph /  3.2km/h 4.0mph /  6.4km/h 82% 0.00in /  0mm
00:44 17.6 °F /  -8 °C 13.0 °F /  -10.6 °C 30.00in /  1015.8hPa WSW 2.0mph /  3.2km/h 5.0mph /  8km/h 82% 0.00in /  0mm
00:49 17.5 °F /  -8.1 °C 12.7 °F /  -10.7 °C 30.00in /  1015.8hPa WSW 2.0mph /  3.2km/h 5.0mph /  8km/h 81% 0.00in /  0mm
00:54 17.5 °F /  -8.1 °C 12.7 °F /  -10.7 °C 30.00in /  1015.8hPa WSW 2.0mph /  3.2km/h 4.0mph /  6.4km/h 81% 0.00in /  0mm
01:04 17.4 °F /  -8.1 °C 12.3 °F /  -10.9 °C 30.00in /  1015.8hPa WSW 1.0mph /  1.6km/h 4.0mph /  6.4km/h 80% 0.00in /  0mm
01:09 17.3 °F /  -8.2 °C 12.2 °F /  -11 °C 30.00in /  1015.8hPa WSW 2.0mph /  3.2km/h 3.0mph /  4.8km/h 80% 0.00in /  0mm
01:14 17.3 °F /  -8.2 °C 12.2 °F /  -11 °C 29.99in /  1015.5hPa Calm   4.0mph /  6.4km/h 80% 0.00in /  0mm
01:19 17.2 °F /  -8.2 °C 12.1 °F /  -11.1 °C 29.99in /  1015.5hPa WSW 2.0mph /  3.2km/h 3.0mph /  4.8km/h 80% 0.00in /  0mm
01:24 17.2 °F /  -8.2 °C 11.8 °F /  -11.2 °C 29.99in /  1015.5hPa WSW 2.0mph /  3.2km/h 4.0mph /  6.4km/h 79% 0.00in /  0mm
01:29 17.2 °F /  -8.2 °C 11.8 °F /  -11.2 °C 29.99in /  1015.5hPa WSW 2.0mph /  3.2km/h 4.0mph /  6.4km/h 79% 0.00in /  0mm
01:34 17.1 °F /  -8.3 °C 11.7 °F /  -11.3 °C 29.99in /  1015.5hPa WSW 2.0mph /  3.2km/h 4.0mph /  6.4km/h 79% 0.00in /  0mm
01:39 17.1 °F /  -8.3 °C 11.7 °F /  -11.3 °C 29.99in /  1015.5hPa Calm   3.0mph /  4.8km/h 79% 0.00in /  0mm
01:44 17.1 °F /  -8.3 °C 11.7 °F /  -11.3 °C 30.00in /  1015.8hPa SW 1.0mph /  1.6km/h 3.0mph /  4.8km/h 79% 0.00in /  0mm
01:49 17.1 °F /  -8.3 °C 12.0 °F /  -11.1 °C 30.00in /  1015.8hPa SW 1.0mph /  1.6km/h 3.0mph /  4.8km/h 80% 0.00in /  0mm
01:54 17.0 °F /  -8.3 °C 11.9 °F /  -11.2 °C 30.00in /  1015.8hPa SW 3.0mph /  4.8km/h 5.0mph /  8km/h 80% 0.00in /  0mm
01:59 16.9 °F /  -8.4 °C 11.8 °F /  -11.2 °C 30.00in /  1015.8hPa SW 2.0mph /  3.2km/h 5.0mph /  8km/h 80% 0.00in /  0mm
02:04 16.9 °F /  -8.4 °C 11.8 °F /  -11.2 °C 29.99in /  1015.5hPa WSW 4.0mph /  6.4km/h 6.0mph /  9.7km/h 80% 0.00in /  0mm
02:09 16.8 °F /  -8.4 °C 11.7 °F /  -11.3 °C 29.99in /  1015.5hPa WSW 3.0mph /  4.8km/h 6.0mph /  9.7km/h 80% 0.00in /  0mm
02:14 16.7 °F /  -8.5 °C 11.3 °F /  -11.5 °C 29.99in /  1015.5hPa WSW 3.0mph /  4.8km/h 6.0mph /  9.7km/h 79% 0.00in /  0mm
02:19 16.7 °F /  -8.5 °C 11.3 °F /  -11.5 °C 29.99in /  1015.5hPa WSW 3.0mph /  4.8km/h 5.0mph /  8km/h 79% 0.00in /  0mm
02:24 16.7 °F /  -8.5 °C 11.0 °F /  -11.7 °C 29.99in /  1015.5hPa WSW 2.0mph /  3.2km/h 5.0mph /  8km/h 78% 0.00in /  0mm
02:29 16.7 °F /  -8.5 °C 11.0 °F /  -11.7 °C 29.99in /  1015.5hPa WSW 2.0mph /  3.2km/h 5.0mph /  8km/h 78% 0.00in /  0mm
02:34 16.7 °F /  -8.5 °C 11.3 °F /  -11.5 °C 29.99in /  1015.5hPa WSW 2.0mph /  3.2km/h 4.0mph /  6.4km/h 79% 0.00in /  0mm
02:39 16.6 °F /  -8.6 °C 11.2 °F /  -11.6 °C 29.99in /  1015.5hPa WSW 2.0mph /  3.2km/h 4.0mph /  6.4km/h 79% 0.00in /  0mm
02:44 16.6 °F /  -8.6 °C 10.9 °F /  -11.7 °C 29.98in /  1015.1hPa WSW 2.0mph /  3.2km/h 5.0mph /  8km/h 78% 0.00in /  0mm
02:49 16.5 °F /  -8.6 °C 10.8 °F /  -11.8 °C 29.98in /  1015.1hPa WSW 2.0mph /  3.2km/h 5.0mph /  8km/h 78% 0.00in /  0mm
02:54 16.5 °F /  -8.6 °C 10.8 °F /  -11.8 °C 29.98in /  1015.1hPa WSW 2.0mph /  3.2km/h 6.0mph /  9.7km/h 78% 0.00in /  0mm
02:59 16.5 °F /  -8.6 °C 10.8 °F /  -11.8 °C 29.98in /  1015.1hPa West 2.0mph /  3.2km/h 6.0mph /  9.7km/h 78% 0.00in /  0mm
03:04 16.5 °F /  -8.6 °C 10.8 °F /  -11.8 °C 29.97in /  1014.8hPa WSW 2.0mph /  3.2km/h 4.0mph /  6.4km/h 78% 0.00in /  0mm
03:09 16.4 °F /  -8.7 °C 10.7 °F /  -11.8 °C 29.97in /  1014.8hPa SW 2.0mph /  3.2km/h 4.0mph /  6.4km/h 78% 0.00in /  0mm
03:14 16.3 °F /  -8.7 °C 10.6 °F /  -11.9 °C 29.97in /  1014.8hPa WSW 2.0mph /  3.2km/h 6.0mph /  9.7km/h 78% 0.00in /  0mm
03:19 16.3 °F /  -8.7 °C 10.6 °F /  -11.9 °C 29.97in /  1014.8hPa West 2.0mph /  3.2km/h 6.0mph /  9.7km/h 78% 0.00in /  0mm
03:29 16.2 °F /  -8.8 °C 10.3 °F /  -12.1 °C 29.97in /  1014.8hPa West 2.0mph /  3.2km/h 4.0mph /  6.4km/h 77% 0.00in /  0mm
03:34 16.2 °F /  -8.8 °C 10.3 °F /  -12.1 °C 29.97in /  1014.8hPa WSW 1.0mph /  1.6km/h 3.0mph /  4.8km/h 77% 0.00in /  0mm
03:39 16.1 °F /  -8.8 °C 10.2 °F /  -12.1 °C 29.97in /  1014.8hPa WSW 2.0mph /  3.2km/h 4.0mph /  6.4km/h 77% 0.00in /  0mm
03:49 16.1 °F /  -8.8 °C 10.2 °F /  -12.1 °C 29.98in /  1015.1hPa Calm   3.0mph /  4.8km/h 77% 0.00in /  0mm
03:54 16.1 °F /  -8.8 °C 10.2 °F /  -12.1 °C 29.98in /  1015.1hPa Calm   3.0mph /  4.8km/h 77% 0.00in /  0mm
03:59 16.1 °F /  -8.8 °C 10.2 °F /  -12.1 °C 29.98in /  1015.1hPa West 1.0mph /  1.6km/h 6.0mph /  9.7km/h 77% 0.00in /  0mm
04:04 16.1 °F /  -8.8 °C 10.2 °F /  -12.1 °C 29.97in /  1014.8hPa WSW 2.0mph /  3.2km/h 6.0mph /  9.7km/h 77% 0.00in /  0mm
04:09 16.0 °F /  -8.9 °C 10.1 °F /  -12.2 °C 29.97in /  1014.8hPa West 2.0mph /  3.2km/h 4.0mph /  6.4km/h 77% 0.00in /  0mm
04:14 15.9 °F /  -8.9 °C 10.3 °F /  -12.1 °C 29.97in /  1014.8hPa West 1.0mph /  1.6km/h 6.0mph /  9.7km/h 78% 0.00in /  0mm
04:19 15.8 °F /  -9 °C 10.2 °F /  -12.1 °C 29.97in /  1014.8hPa West 2.0mph /  3.2km/h 6.0mph /  9.7km/h 78% 0.00in /  0mm
04:24 15.8 °F /  -9 °C 10.2 °F /  -12.1 °C 29.97in /  1014.8hPa WNW 3.0mph /  4.8km/h 7.0mph /  11.3km/h 78% 0.00in /  0mm
04:29 15.8 °F /  -9 °C 10.4 °F /  -12 °C 29.97in /  1014.8hPa WNW 3.0mph /  4.8km/h 7.0mph /  11.3km/h 79% 0.00in /  0mm
04:34 15.7 °F /  -9.1 °C 10.3 °F /  -12.1 °C 29.96in /  1014.4hPa West 2.0mph /  3.2km/h 6.0mph /  9.7km/h 79% 0.00in /  0mm
04:39 15.6 °F /  -9.1 °C 10.5 °F /  -11.9 °C 29.96in /  1014.4hPa West 2.0mph /  3.2km/h 5.0mph /  8km/h 80% 0.00in /  0mm
04:44 15.6 °F /  -9.1 °C 10.5 °F /  -11.9 °C 29.96in /  1014.4hPa West 2.0mph /  3.2km/h 5.0mph /  8km/h 80% 0.00in /  0mm
04:49 15.5 °F /  -9.2 °C 10.4 °F /  -12 °C 29.96in /  1014.4hPa West 1.0mph /  1.6km/h 3.0mph /  4.8km/h 80% 0.00in /  0mm
04:54 15.5 °F /  -9.2 °C 10.4 °F /  -12 °C 29.95in /  1014.1hPa WSW 2.0mph /  3.2km/h 4.0mph /  6.4km/h 80% 0.00in /  0mm
04:59 15.5 °F /  -9.2 °C 10.4 °F /  -12 °C 29.95in /  1014.1hPa West 1.0mph /  1.6km/h 4.0mph /  6.4km/h 80% 0.00in /  0mm
05:04 15.5 °F /  -9.2 °C 10.4 °F /  -12 °C 29.95in /  1014.1hPa West 2.0mph /  3.2km/h 4.0mph /  6.4km/h 80% 0.00in /  0mm
05:09 15.5 °F /  -9.2 °C 10.7 °F /  -11.8 °C 29.95in /  1014.1hPa WNW 1.0mph /  1.6km/h 5.0mph /  8km/h 81% 0.00in /  0mm
05:14 15.5 °F /  -9.2 °C 10.7 °F /  -11.8 °C 29.95in /  1014.1hPa NW 1.0mph /  1.6km/h 5.0mph /  8km/h 81% 0.00in /  0mm
05:19 15.5 °F /  -9.2 °C 10.7 °F /  -11.8 °C 29.95in /  1014.1hPa NW 1.0mph /  1.6km/h 3.0mph /  4.8km/h 81% 0.00in /  0mm
05:29 15.6 °F /  -9.1 °C 10.8 °F /  -11.8 °C 29.95in /  1014.1hPa West 1.0mph /  1.6km/h 3.0mph /  4.8km/h 81% 0.00in /  0mm
05:34 15.5 °F /  -9.2 °C 10.7 °F /  -11.8 °C 29.95in /  1014.1hPa Calm   2.0mph /  3.2km/h 81% 0.00in /  0mm
05:39 15.5 °F /  -9.2 °C 10.7 °F /  -11.8 °C 29.95in /  1014.1hPa West 1.0mph /  1.6km/h 4.0mph /  6.4km/h 81% 0.00in /  0mm
05:59 15.5 °F /  -9.2 °C 10.7 °F /  -11.8 °C 29.94in /  1013.8hPa West 1.0mph /  1.6km/h 3.0mph /  4.8km/h 81% 0.00in /  0mm
06:04 15.5 °F /  -9.2 °C 10.7 °F /  -11.8 °C 29.94in /  1013.8hPa WNW 1.0mph /  1.6km/h 6.0mph /  9.7km/h 81% 0.00in /  0mm
06:09 15.5 °F /  -9.2 °C 10.7 °F /  -11.8 °C 29.95in /  1014.1hPa West 2.0mph /  3.2km/h 4.0mph /  6.4km/h 81% 0.00in /  0mm
06:14 15.5 °F /  -9.2 °C 10.7 °F /  -11.8 °C 29.95in /  1014.1hPa West 2.0mph /  3.2km/h 4.0mph /  6.4km/h 81% 0.00in /  0mm
06:19 15.5 °F /  -9.2 °C 10.7 °F /  -11.8 °C 29.94in /  1013.8hPa West 2.0mph /  3.2km/h 6.0mph /  9.7km/h 81% 0.00in /  0mm
06:24 15.5 °F /  -9.2 °C 10.7 °F /  -11.8 °C 29.94in /  1013.8hPa West 2.0mph /  3.2km/h 6.0mph /  9.7km/h 81% 0.00in /  0mm
06:29 15.5 °F /  -9.2 °C 10.7 °F /  -11.8 °C 29.95in /  1014.1hPa West 2.0mph /  3.2km/h 5.0mph /  8km/h 81% 0.00in /  0mm
06:34 15.5 °F /  -9.2 °C 10.7 °F /  -11.8 °C 29.95in /  1014.1hPa West 1.0mph /  1.6km/h 4.0mph /  6.4km/h 81% 0.00in /  0mm
06:39 15.5 °F /  -9.2 °C 10.7 °F /  -11.8 °C 29.95in /  1014.1hPa West 2.0mph /  3.2km/h 4.0mph /  6.4km/h 81% 0.00in /  0mm
06:44 15.5 °F /  -9.2 °C 10.7 °F /  -11.8 °C 29.95in /  1014.1hPa WNW 2.0mph /  3.2km/h 7.0mph /  11.3km/h 81% 0.00in /  0mm
06:49 15.6 °F /  -9.1 °C 10.8 °F /  -11.8 °C 29.95in /  1014.1hPa WNW 3.0mph /  4.8km/h 7.0mph /  11.3km/h 81% 0.00in /  0mm
06:54 15.6 °F /  -9.1 °C 10.5 °F /  -11.9 °C 29.95in /  1014.1hPa WNW 2.0mph /  3.2km/h 7.0mph /  11.3km/h 80% 0.00in /  0mm
06:59 15.5 °F /  -9.2 °C 10.4 °F /  -12 °C 29.95in /  1014.1hPa West 2.0mph /  3.2km/h 8.0mph /  12.9km/h 80% 0.00in /  0mm
07:04 15.5 °F /  -9.2 °C 10.4 °F /  -12 °C 29.94in /  1013.8hPa WNW 3.0mph /  4.8km/h 8.0mph /  12.9km/h 80% 0.00in /  0mm
07:09 15.4 °F /  -9.2 °C 10.3 °F /  -12.1 °C 29.95in /  1014.1hPa WNW 3.0mph /  4.8km/h 6.0mph /  9.7km/h 80% 0.00in /  0mm
07:14 15.3 °F /  -9.3 °C 10.2 °F /  -12.1 °C 29.95in /  1014.1hPa WNW 2.0mph /  3.2km/h 5.0mph /  8km/h 80% 0.00in /  0mm
07:24 15.1 °F /  -9.4 °C 10.0 °F /  -12.2 °C 29.94in /  1013.8hPa WNW 3.0mph /  4.8km/h 7.0mph /  11.3km/h 80% 0.00in /  0mm
07:29 14.9 °F /  -9.5 °C 9.8 °F /  -12.3 °C 29.94in /  1013.8hPa WNW 4.0mph /  6.4km/h 7.0mph /  11.3km/h 80% 0.00in /  0mm
07:34 14.8 °F /  -9.6 °C 10.0 °F /  -12.2 °C 29.94in /  1013.8hPa WNW 4.0mph /  6.4km/h 9.0mph /  14.5km/h 81% 0.00in /  0mm
07:39 14.5 °F /  -9.7 °C 9.5 °F /  -12.5 °C 29.94in /  1013.8hPa WNW 2.0mph /  3.2km/h 9.0mph /  14.5km/h 80% 0.00in /  0mm
07:44 14.3 °F /  -9.8 °C 9.5 °F /  -12.5 °C 29.94in /  1013.8hPa WNW 4.0mph /  6.4km/h 9.0mph /  14.5km/h 81% 0.00in /  0mm
07:49 14.2 °F /  -9.9 °C 9.4 °F /  -12.6 °C 29.93in /  1013.4hPa NW 4.0mph /  6.4km/h 8.0mph /  12.9km/h 81% 0.00in /  0mm
07:54 14.2 °F /  -9.9 °C 9.4 °F /  -12.6 °C 29.93in /  1013.4hPa WNW 5.0mph /  8km/h 8.0mph /  12.9km/h 81% 0.00in /  0mm
08:04 14.0 °F /  -10 °C 9.5 °F /  -12.5 °C 29.92in /  1013.1hPa WNW 4.0mph /  6.4km/h 9.0mph /  14.5km/h 82% 0.00in /  0mm
08:09 14.0 °F /  -10 °C 9.5 °F /  -12.5 °C 29.92in /  1013.1hPa NW 4.0mph /  6.4km/h 7.0mph /  11.3km/h 82% 0.00in /  0mm
08:14 14.0 °F /  -10 °C 9.5 °F /  -12.5 °C 29.92in /  1013.1hPa WNW 4.0mph /  6.4km/h 7.0mph /  11.3km/h 82% 0.00in /  0mm
08:19 14.0 °F /  -10 °C 9.5 °F /  -12.5 °C 29.91in /  1012.8hPa NW 4.0mph /  6.4km/h 8.0mph /  12.9km/h 82% 0.00in /  0mm
08:24 14.0 °F /  -10 °C 9.5 °F /  -12.5 °C 29.91in /  1012.8hPa WNW 4.0mph /  6.4km/h 8.0mph /  12.9km/h 82% 0.00in /  0mm
08:29 14.2 °F /  -9.9 °C 9.7 °F /  -12.4 °C 29.91in /  1012.8hPa NW 4.0mph /  6.4km/h 9.0mph /  14.5km/h 82% 0.00in /  0mm
08:34 14.4 °F /  -9.8 °C 9.9 °F /  -12.3 °C 29.91in /  1012.8hPa NW 3.0mph /  4.8km/h 9.0mph /  14.5km/h 82% 0.00in /  0mm
08:39 14.6 °F /  -9.7 °C 10.1 °F /  -12.2 °C 29.91in /  1012.8hPa NW 8.0mph /  12.9km/h 9.0mph /  14.5km/h 82% 0.00in /  0mm
08:44 14.5 °F /  -9.7 °C 10.0 °F /  -12.2 °C 29.91in /  1012.8hPa NW 5.0mph /  8km/h 11.0mph /  17.7km/h 82% 0.00in /  0mm
08:49 14.5 °F /  -9.7 °C 9.7 °F /  -12.4 °C 29.90in /  1012.4hPa NW 2.0mph /  3.2km/h 7.0mph /  11.3km/h 81% 0.00in /  0mm
08:54 14.5 °F /  -9.7 °C 9.7 °F /  -12.4 °C 29.90in /  1012.4hPa WNW 4.0mph /  6.4km/h 9.0mph /  14.5km/h 81% 0.00in /  0mm
08:59 14.5 °F /  -9.7 °C 9.5 °F /  -12.5 °C 29.90in /  1012.4hPa WNW 5.0mph /  8km/h 9.0mph /  14.5km/h 80% 0.00in /  0mm
09:04 14.7 °F /  -9.6 °C 9.6 °F /  -12.4 °C 29.89in /  1012.1hPa NW 5.0mph /  8km/h 11.0mph /  17.7km/h 80% 0.00in /  0mm
09:09 14.8 °F /  -9.6 °C 9.5 °F /  -12.5 °C 29.89in /  1012.1hPa NW 4.0mph /  6.4km/h 8.0mph /  12.9km/h 79% 0.00in /  0mm
09:14 15.2 °F /  -9.3 °C 9.9 °F /  -12.3 °C 29.89in /  1012.1hPa NW 4.0mph /  6.4km/h 9.0mph /  14.5km/h 79% 0.00in /  0mm
09:19 15.7 °F /  -9.1 °C 9.8 °F /  -12.3 °C 29.89in /  1012.1hPa NW 4.0mph /  6.4km/h 14.0mph /  22.5km/h 77% 0.00in /  0mm
09:24 16.2 °F /  -8.8 °C 10.0 °F /  -12.2 °C 29.89in /  1012.1hPa NNW 5.0mph /  8km/h 13.0mph /  20.9km/h 76% 0.00in /  0mm
09:29 16.5 °F /  -8.6 °C 9.7 °F /  -12.4 °C 29.89in /  1012.1hPa WNW 5.0mph /  8km/h 12.0mph /  19.3km/h 74% 0.00in /  0mm
09:34 16.7 °F /  -8.5 °C 9.5 °F /  -12.5 °C 29.89in /  1012.1hPa NW 5.0mph /  8km/h 15.0mph /  24.1km/h 73% 0.00in /  0mm
09:39 16.9 °F /  -8.4 °C 9.1 °F /  -12.7 °C 29.90in /  1012.4hPa North 4.0mph /  6.4km/h 14.0mph /  22.5km/h 71% 0.00in /  0mm
09:44 17.1 °F /  -8.3 °C 9.0 °F /  -12.8 °C 29.90in /  1012.4hPa NNW 6.0mph /  9.7km/h 15.0mph /  24.1km/h 70% 0.00in /  0mm
09:49 17.0 °F /  -8.3 °C 8.6 °F /  -13 °C 29.90in /  1012.4hPa NNW 7.0mph /  11.3km/h 15.0mph /  24.1km/h 69% 0.00in /  0mm
09:54 17.1 °F /  -8.3 °C 8.7 °F /  -12.9 °C 29.91in /  1012.8hPa NW 6.0mph /  9.7km/h 15.0mph /  24.1km/h 69% 0.00in /  0mm
09:59 17.1 °F /  -8.3 °C 8.7 °F /  -12.9 °C 29.91in /  1012.8hPa NW 7.0mph /  11.3km/h 14.0mph /  22.5km/h 69% 0.00in /  0mm
10:04 17.1 °F /  -8.3 °C 8.7 °F /  -12.9 °C 29.91in /  1012.8hPa WNW 9.0mph /  14.5km/h 15.0mph /  24.1km/h 69% 0.00in /  0mm
10:09 17.2 °F /  -8.2 °C 8.8 °F /  -12.9 °C 29.91in /  1012.8hPa NW 7.0mph /  11.3km/h 15.0mph /  24.1km/h 69% 0.00in /  0mm
10:14 17.4 °F /  -8.1 °C 9.3 °F /  -12.6 °C 29.91in /  1012.8hPa NNW 7.0mph /  11.3km/h 14.0mph /  22.5km/h 70% 0.00in /  0mm
10:19 17.6 °F /  -8 °C 9.5 °F /  -12.5 °C 29.91in /  1012.8hPa NW 6.0mph /  9.7km/h 9.0mph /  14.5km/h 70% 0.00in /  0mm
10:24 17.5 °F /  -8.1 °C 9.4 °F /  -12.6 °C 29.92in /  1013.1hPa NW 5.0mph /  8km/h 12.0mph /  19.3km/h 70% 0.00in /  0mm
10:30 17.5 °F /  -8.1 °C 9.1 °F /  -12.7 °C 29.92in /  1013.1hPa NW 6.0mph /  9.7km/h 13.0mph /  20.9km/h 69% 0.00in /  0mm
10:39 17.1 °F /  -8.3 °C 9.0 °F /  -12.8 °C 29.92in /  1013.1hPa NW 7.0mph /  11.3km/h 11.0mph /  17.7km/h 70% 0.00in /  0mm
10:44 17.9 °F /  -7.8 °C 9.8 °F /  -12.3 °C 29.92in /  1013.1hPa North 5.0mph /  8km/h 13.0mph /  20.9km/h 70% 0.00in /  0mm
10:49 17.8 °F /  -7.9 °C 9.7 °F /  -12.4 °C 29.93in /  1013.4hPa NW 6.0mph /  9.7km/h 14.0mph /  22.5km/h 70% 0.00in /  0mm
10:54 17.3 °F /  -8.2 °C 9.5 °F /  -12.5 °C 29.93in /  1013.4hPa NW 6.0mph /  9.7km/h 14.0mph /  22.5km/h 71% 0.00in /  0mm
10:59 17.1 °F /  -8.3 °C 9.6 °F /  -12.4 °C 29.92in /  1013.1hPa NNW 3.0mph /  4.8km/h 13.0mph /  20.9km/h 72% 0.00in /  0mm
11:04 17.5 °F /  -8.1 °C 10.0 °F /  -12.2 °C 29.92in /  1013.1hPa NW 3.0mph /  4.8km/h 9.0mph /  14.5km/h 72% 0.00in /  0mm
11:14 17.9 °F /  -7.8 °C 10.7 °F /  -11.8 °C 29.92in /  1013.1hPa NW 5.0mph /  8km/h 10.0mph /  16.1km/h 73% 0.00in /  0mm
11:19 18.0 °F /  -7.8 °C 10.5 °F /  -11.9 °C 29.92in /  1013.1hPa North 4.0mph /  6.4km/h 11.0mph /  17.7km/h 72% 0.00in /  0mm
11:24 17.5 °F /  -8.1 °C 10.6 °F /  -11.9 °C 29.92in /  1013.1hPa NNW 4.0mph /  6.4km/h 11.0mph /  17.7km/h 74% 0.00in /  0mm
11:39 17.3 °F /  -8.2 °C 10.4 °F /  -12 °C 29.91in /  1012.8hPa NW 5.0mph /  8km/h 10.0mph /  16.1km/h 74% 0.00in /  0mm
11:40 17.3 °F /  -8.2 °C 10.4 °F /  -12 °C 29.91in /  1012.8hPa NW 5.0mph /  8km/h 10.0mph /  16.1km/h 74% 0.00in /  0mm
11:49 16.6 °F /  -8.6 °C 10.1 °F /  -12.2 °C 29.91in /  1012.8hPa NNW 5.0mph /  8km/h 13.0mph /  20.9km/h 75% 0.00in /  0mm
11:54 16.3 °F /  -8.7 °C 9.8 °F /  -12.3 °C 29.91in /  1012.8hPa WNW 3.0mph /  4.8km/h 9.0mph /  14.5km/h 75% 0.00in /  0mm
11:59 17.0 °F /  -8.3 °C 10.7 °F /  -11.8 °C 29.91in /  1012.8hPa NW 6.0mph /  9.7km/h 8.0mph /  12.9km/h 76% 0.00in /  0mm
12:04 17.6 °F /  -8 °C 10.4 °F /  -12 °C 29.90in /  1012.4hPa NW 12.0mph /  19.3km/h 12.0mph /  19.3km/h 73% 0.00in /  0mm
12:09 16.7 °F /  -8.5 °C 8.9 °F /  -12.8 °C 29.91in /  1012.8hPa North 6.0mph /  9.7km/h 12.0mph /  19.3km/h 71% 0.00in /  0mm
12:14 16.3 °F /  -8.7 °C 8.2 °F /  -13.2 °C 29.91in /  1012.8hPa NNW 6.0mph /  9.7km/h 12.0mph /  19.3km/h 70% 0.00in /  0mm
12:19 16.3 °F /  -8.7 °C 8.5 °F /  -13.1 °C 29.90in /  1012.4hPa NW 7.0mph /  11.3km/h 7.0mph /  11.3km/h 71% 0.00in /  0mm
12:24 16.0 °F /  -8.9 °C 8.3 °F /  -13.2 °C 29.90in /  1012.4hPa NW 4.0mph /  6.4km/h 10.0mph /  16.1km/h 71% 0.00in /  0mm
12:29 15.9 °F /  -8.9 °C 8.2 °F /  -13.2 °C 29.90in /  1012.4hPa NW 5.0mph /  8km/h 10.0mph /  16.1km/h 71% 0.00in /  0mm
12:34 15.9 °F /  -8.9 °C 8.2 °F /  -13.2 °C 29.89in /  1012.1hPa NW 6.0mph /  9.7km/h 10.0mph /  16.1km/h 71% 0.00in /  0mm
12:39 15.9 °F /  -8.9 °C 8.5 °F /  -13.1 °C 29.89in /  1012.1hPa West 6.0mph /  9.7km/h 9.0mph /  14.5km/h 72% 0.00in /  0mm
12:44 15.9 °F /  -8.9 °C 8.8 °F /  -12.9 °C 29.89in /  1012.1hPa North 4.0mph /  6.4km/h 11.0mph /  17.7km/h 73% 0.00in /  0mm
12:49 15.9 °F /  -8.9 °C 8.5 °F /  -13.1 °C 29.89in /  1012.1hPa WNW 6.0mph /  9.7km/h 14.0mph /  22.5km/h 72% 0.00in /  0mm
12:54 16.1 °F /  -8.8 °C 9.0 °F /  -12.8 °C 29.89in /  1012.1hPa WNW 6.0mph /  9.7km/h 14.0mph /  22.5km/h 73% 0.00in /  0mm
13:04 15.9 °F /  -8.9 °C 8.8 °F /  -12.9 °C 29.88in /  1011.7hPa WNW 5.0mph /  8km/h 11.0mph /  17.7km/h 73% 0.00in /  0mm
13:09 15.5 °F /  -9.2 °C 8.4 °F /  -13.1 °C 29.88in /  1011.7hPa WNW 6.0mph /  9.7km/h 14.0mph /  22.5km/h 73% 0.00in /  0mm
13:14 15.3 °F /  -9.3 °C 8.5 °F /  -13.1 °C 29.88in /  1011.7hPa WNW 7.0mph /  11.3km/h 14.0mph /  22.5km/h 74% 0.00in /  0mm
13:19 15.2 °F /  -9.3 °C 8.7 °F /  -12.9 °C 29.87in /  1011.4hPa WNW 6.0mph /  9.7km/h 14.0mph /  22.5km/h 75% 0.00in /  0mm
13:24 15.4 °F /  -9.2 °C 8.9 °F /  -12.8 °C 29.87in /  1011.4hPa WNW 5.0mph /  8km/h 11.0mph /  17.7km/h 75% 0.00in /  0mm
13:29 15.3 °F /  -9.3 °C 8.8 °F /  -12.9 °C 29.87in /  1011.4hPa West 10.0mph /  16.1km/h 11.0mph /  17.7km/h 75% 0.00in /  0mm
13:34 15.2 °F /  -9.3 °C 8.7 °F /  -12.9 °C 29.87in /  1011.4hPa NW 6.0mph /  9.7km/h 15.0mph /  24.1km/h 75% 0.00in /  0mm
13:39 15.8 °F /  -9 °C 8.7 °F /  -12.9 °C 29.87in /  1011.4hPa WNW 8.0mph /  12.9km/h 15.0mph /  24.1km/h 73% 0.00in /  0mm
13:44 16.0 °F /  -8.9 °C 8.6 °F /  -13 °C 29.87in /  1011.4hPa WNW 8.0mph /  12.9km/h 16.0mph /  25.7km/h 72% 0.00in /  0mm
13:49 15.8 °F /  -9 °C 8.1 °F /  -13.3 °C 29.87in /  1011.4hPa WNW 9.0mph /  14.5km/h 16.0mph /  25.7km/h 71% 0.00in /  0mm
13:54 15.1 °F /  -9.4 °C 8.0 °F /  -13.3 °C 29.87in /  1011.4hPa WNW 9.0mph /  14.5km/h 16.0mph /  25.7km/h 73% 0.00in /  0mm
13:59 15.0 °F /  -9.4 °C 8.2 °F /  -13.2 °C 29.87in /  1011.4hPa WNW 7.0mph /  11.3km/h 14.0mph /  22.5km/h 74% 0.00in /  0mm
14:04 14.9 °F /  -9.5 °C 8.4 °F /  -13.1 °C 29.87in /  1011.4hPa WNW 7.0mph /  11.3km/h 12.0mph /  19.3km/h 75% 0.00in /  0mm
14:09 14.5 °F /  -9.7 °C 8.0 °F /  -13.3 °C 29.88in /  1011.7hPa NW 5.0mph /  8km/h 14.0mph /  22.5km/h 75% 0.00in /  0mm
14:14 14.4 °F /  -9.8 °C 7.9 °F /  -13.4 °C 29.88in /  1011.7hPa NW 6.0mph /  9.7km/h 14.0mph /  22.5km/h 75% 0.00in /  0mm
14:19 14.4 °F /  -9.8 °C 7.9 °F /  -13.4 °C 29.88in /  1011.7hPa NW 6.0mph /  9.7km/h 11.0mph /  17.7km/h 75% 0.00in /  0mm
14:24 14.2 °F /  -9.9 °C 7.7 °F /  -13.5 °C 29.88in /  1011.7hPa NW 6.0mph /  9.7km/h 12.0mph /  19.3km/h 75% 0.00in /  0mm
14:29 13.6 °F /  -10.2 °C 6.8 °F /  -14 °C 29.88in /  1011.7hPa NNW 7.0mph /  11.3km/h 12.0mph /  19.3km/h 74% 0.00in /  0mm
14:34 13.4 °F /  -10.3 °C 6.7 °F /  -14.1 °C 29.88in /  1011.7hPa NW 6.0mph /  9.7km/h 12.0mph /  19.3km/h 74% 0.00in /  0mm
14:39 13.4 °F /  -10.3 °C 7.0 °F /  -13.9 °C 29.88in /  1011.7hPa West 8.0mph /  12.9km/h 13.0mph /  20.9km/h 75% 0.00in /  0mm
14:44 13.3 °F /  -10.4 °C 6.9 °F /  -13.9 °C 29.88in /  1011.7hPa NW 6.0mph /  9.7km/h 13.0mph /  20.9km/h 75% 0.00in /  0mm
14:49 13.3 °F /  -10.4 °C 6.9 °F /  -13.9 °C 29.88in /  1011.7hPa WNW 6.0mph /  9.7km/h 13.0mph /  20.9km/h 75% 0.00in /  0mm
14:54 13.3 °F /  -10.4 °C 7.1 °F /  -13.8 °C 29.88in /  1011.7hPa WNW 6.0mph /  9.7km/h 13.0mph /  20.9km/h 76% 0.00in /  0mm
14:59 13.2 °F /  -10.4 °C 7.3 °F /  -13.7 °C 29.88in /  1011.7hPa WNW 7.0mph /  11.3km/h 12.0mph /  19.3km/h 77% 0.00in /  0mm
15:04 13.3 °F /  -10.4 °C 7.7 °F /  -13.5 °C 29.88in /  1011.7hPa WNW 11.0mph /  17.7km/h 15.0mph /  24.1km/h 78% 0.00in /  0mm
15:09 13.1 °F /  -10.5 °C 7.8 °F /  -13.4 °C 29.88in /  1011.7hPa WNW 7.0mph /  11.3km/h 15.0mph /  24.1km/h 79% 0.00in /  0mm
15:14 13.0 °F /  -10.6 °C 8.0 °F /  -13.3 °C 29.88in /  1011.7hPa WNW 7.0mph /  11.3km/h 13.0mph /  20.9km/h 80% 0.00in /  0mm
15:19 13.1 °F /  -10.5 °C 8.4 °F /  -13.1 °C 29.88in /  1011.7hPa WNW 7.0mph /  11.3km/h 11.0mph /  17.7km/h 81% 0.00in /  0mm
15:20 13.1 °F /  -10.5 °C 8.4 °F /  -13.1 °C 29.88in /  1011.7hPa WNW 5.0mph /  8km/h 11.0mph /  17.7km/h 81% 0.00in /  0mm
15:29 12.5 °F /  -10.8 °C 7.5 °F /  -13.6 °C 29.88in /  1011.7hPa NW 6.0mph /  9.7km/h 15.0mph /  24.1km/h 80% 0.00in /  0mm
15:34 12.4 °F /  -10.9 °C 7.7 °F /  -13.5 °C 29.88in /  1011.7hPa NW 6.0mph /  9.7km/h 15.0mph /  24.1km/h 81% 0.00in /  0mm
15:39 12.2 °F /  -11 °C 7.2 °F /  -13.8 °C 29.88in /  1011.7hPa West 5.0mph /  8km/h 11.0mph /  17.7km/h 80% 0.00in /  0mm
15:49 12.3 °F /  -10.9 °C 7.3 °F /  -13.7 °C 29.88in /  1011.7hPa WNW 4.0mph /  6.4km/h 7.0mph /  11.3km/h 80% 0.00in /  0mm
15:54 12.3 °F /  -10.9 °C 7.3 °F /  -13.7 °C 29.88in /  1011.7hPa WNW 4.0mph /  6.4km/h 12.0mph /  19.3km/h 80% 0.00in /  0mm
16:10 12.4 °F /  -10.9 °C 7.7 °F /  -13.5 °C 29.88in /  1011.7hPa WNW 5.0mph /  8km/h 12.0mph /  19.3km/h 81% 0.00in /  0mm
16:44 11.2 °F /  -11.6 °C 6.0 °F /  -14.4 °C 29.89in /  1012.1hPa WSW 9.0mph /  14.5km/h 13.0mph /  20.9km/h 79% 0.00in /  0mm
16:49 10.9 °F /  -11.7 °C 5.4 °F /  -14.8 °C 29.90in /  1012.4hPa WNW 7.0mph /  11.3km/h 16.0mph /  25.7km/h 78% 0.00in /  0mm
16:59 10.4 °F /  -12 °C 4.6 °F /  -15.2 °C 29.90in /  1012.4hPa WNW 7.0mph /  11.3km/h 14.0mph /  22.5km/h 77% 0.00in /  0mm
17:09 10.3 °F /  -12.1 °C 4.2 °F /  -15.4 °C 29.90in /  1012.4hPa WNW 7.0mph /  11.3km/h 14.0mph /  22.5km/h 76% 0.00in /  0mm
17:14 10.2 °F /  -12.1 °C 4.1 °F /  -15.5 °C 29.90in /  1012.4hPa WNW 7.0mph /  11.3km/h 14.0mph /  22.5km/h 76% 0.00in /  0mm
17:24 10.1 °F /  -12.2 °C 3.8 °F /  -15.7 °C 29.90in /  1012.4hPa WNW 7.0mph /  11.3km/h 14.0mph /  22.5km/h 75% 0.00in /  0mm
17:29 9.9 °F /  -12.3 °C 3.6 °F /  -15.8 °C 29.90in /  1012.4hPa WNW 6.0mph /  9.7km/h 14.0mph /  22.5km/h 75% 0.00in /  0mm
17:39 9.9 °F /  -12.3 °C 3.6 °F /  -15.8 °C 29.90in /  1012.4hPa West 8.0mph /  12.9km/h 15.0mph /  24.1km/h 75% 0.00in /  0mm
17:44 9.9 °F /  -12.3 °C 3.6 °F /  -15.8 °C 29.90in /  1012.4hPa West 8.0mph /  12.9km/h 15.0mph /  24.1km/h 75% 0.00in /  0mm
17:49 9.8 °F /  -12.3 °C 3.5 °F /  -15.8 °C 29.90in /  1012.4hPa WNW 9.0mph /  14.5km/h 15.0mph /  24.1km/h 75% 0.00in /  0mm
17:54 9.6 °F /  -12.4 °C 3.3 °F /  -15.9 °C 29.90in /  1012.4hPa WSW 8.0mph /  12.9km/h 16.0mph /  25.7km/h 75% 0.00in /  0mm
17:59 9.5 °F /  -12.5 °C 3.2 °F /  -16 °C 29.91in /  1012.8hPa WNW 9.0mph /  14.5km/h 16.0mph /  25.7km/h 75% 0.00in /  0mm
18:04 9.5 °F /  -12.5 °C 3.2 °F /  -16 °C 29.91in /  1012.8hPa WNW 12.0mph /  19.3km/h 18.0mph /  29km/h 75% 0.00in /  0mm
18:09 9.4 °F /  -12.6 °C 2.8 °F /  -16.2 °C 29.91in /  1012.8hPa NNW 6.0mph /  9.7km/h 13.0mph /  20.9km/h 74% 0.00in /  0mm
18:14 9.3 °F /  -12.6 °C 2.7 °F /  -16.3 °C 29.91in /  1012.8hPa WNW 8.0mph /  12.9km/h 15.0mph /  24.1km/h 74% 0.00in /  0mm
18:19 9.2 °F /  -12.7 °C 2.9 °F /  -16.2 °C 29.91in /  1012.8hPa NW 9.0mph /  14.5km/h 15.0mph /  24.1km/h 75% 0.00in /  0mm
18:24 9.2 °F /  -12.7 °C 2.9 °F /  -16.2 °C 29.91in /  1012.8hPa WNW 6.0mph /  9.7km/h 16.0mph /  25.7km/h 75% 0.00in /  0mm
18:29 9.1 °F /  -12.7 °C 2.8 °F /  -16.2 °C 29.91in /  1012.8hPa WNW 8.0mph /  12.9km/h 16.0mph /  25.7km/h 75% 0.00in /  0mm
18:34 9.0 °F /  -12.8 °C 2.7 °F /  -16.3 °C 29.91in /  1012.8hPa WNW 10.0mph /  16.1km/h 14.0mph /  22.5km/h 75% 0.00in /  0mm
18:39 8.9 °F /  -12.8 °C 2.6 °F /  -16.3 °C 29.91in /  1012.8hPa WNW 10.0mph /  16.1km/h 15.0mph /  24.1km/h 75% 0.00in /  0mm
18:44 8.7 °F /  -12.9 °C 2.4 °F /  -16.4 °C 29.91in /  1012.8hPa NW 10.0mph /  16.1km/h 18.0mph /  29km/h 75% 0.00in /  0mm
18:49 8.6 °F /  -13 °C 2.3 °F /  -16.5 °C 29.91in /  1012.8hPa West 8.0mph /  12.9km/h 20.0mph /  32.2km/h 75% 0.00in /  0mm
18:54 8.5 °F /  -13.1 °C 2.2 °F /  -16.6 °C 29.91in /  1012.8hPa West 8.0mph /  12.9km/h 20.0mph /  32.2km/h 75% 0.00in /  0mm
18:59 8.3 °F /  -13.2 °C 2.0 °F /  -16.7 °C 29.91in /  1012.8hPa WNW 9.0mph /  14.5km/h 16.0mph /  25.7km/h 75% 0.00in /  0mm
19:04 8.1 °F /  -13.3 °C 2.1 °F /  -16.6 °C 29.91in /  1012.8hPa WNW 9.0mph /  14.5km/h 16.0mph /  25.7km/h 76% 0.00in /  0mm
19:09 8.1 °F /  -13.3 °C 2.4 °F /  -16.4 °C 29.91in /  1012.8hPa WNW 8.0mph /  12.9km/h 15.0mph /  24.1km/h 77% 0.00in /  0mm
19:19 7.8 °F /  -13.4 °C 2.4 °F /  -16.4 °C 29.92in /  1013.1hPa WNW 7.0mph /  11.3km/h 15.0mph /  24.1km/h 78% 0.00in /  0mm
19:24 7.7 °F /  -13.5 °C 2.3 °F /  -16.5 °C 29.92in /  1013.1hPa WNW 6.0mph /  9.7km/h 15.0mph /  24.1km/h 78% 0.00in /  0mm
19:29 7.6 °F /  -13.6 °C 2.2 °F /  -16.6 °C 29.92in /  1013.1hPa WNW 8.0mph /  12.9km/h 15.0mph /  24.1km/h 78% 0.00in /  0mm
19:34 7.5 °F /  -13.6 °C 2.3 °F /  -16.5 °C 29.92in /  1013.1hPa WNW 8.0mph /  12.9km/h 14.0mph /  22.5km/h 79% 0.00in /  0mm
19:39 7.6 °F /  -13.6 °C 2.4 °F /  -16.4 °C 29.92in /  1013.1hPa NW 6.0mph /  9.7km/h 13.0mph /  20.9km/h 79% 0.00in /  0mm
19:44 7.7 °F /  -13.5 °C 2.5 °F /  -16.4 °C 29.92in /  1013.1hPa West 6.0mph /  9.7km/h 10.0mph /  16.1km/h 79% 0.00in /  0mm
19:49 7.7 °F /  -13.5 °C 2.8 °F /  -16.2 °C 29.92in /  1013.1hPa WNW 5.0mph /  8km/h 12.0mph /  19.3km/h 80% 0.00in /  0mm
19:54 7.7 °F /  -13.5 °C 2.8 °F /  -16.2 °C 29.92in /  1013.1hPa WNW 7.0mph /  11.3km/h 12.0mph /  19.3km/h 80% 0.00in /  0mm
20:04 7.7 °F /  -13.5 °C 3.1 °F /  -16.1 °C 29.92in /  1013.1hPa WNW 6.0mph /  9.7km/h 16.0mph /  25.7km/h 81% 0.00in /  0mm
20:09 7.8 °F /  -13.4 °C 3.2 °F /  -16 °C 29.92in /  1013.1hPa WNW 5.0mph /  8km/h 13.0mph /  20.9km/h 81% 0.00in /  0mm
20:14 7.8 °F /  -13.4 °C 3.2 °F /  -16 °C 29.92in /  1013.1hPa WNW 5.0mph /  8km/h 13.0mph /  20.9km/h 81% 0.00in /  0mm
20:19 7.8 °F /  -13.4 °C 3.2 °F /  -16 °C 29.92in /  1013.1hPa WNW 5.0mph /  8km/h 12.0mph /  19.3km/h 81% 0.00in /  0mm
20:24 7.8 °F /  -13.4 °C 3.2 °F /  -16 °C 29.92in /  1013.1hPa WNW 7.0mph /  11.3km/h 13.0mph /  20.9km/h 81% 0.00in /  0mm
20:34 7.7 °F /  -13.5 °C 3.1 °F /  -16.1 °C 29.92in /  1013.1hPa WNW 7.0mph /  11.3km/h 13.0mph /  20.9km/h 81% 0.00in /  0mm
20:44 7.8 °F /  -13.4 °C 3.2 °F /  -16 °C 29.92in /  1013.1hPa WNW 5.0mph /  8km/h 12.0mph /  19.3km/h 81% 0.00in /  0mm
20:49 7.8 °F /  -13.4 °C 3.4 °F /  -15.9 °C 29.93in /  1013.4hPa NW 2.0mph /  3.2km/h 8.0mph /  12.9km/h 82% 0.00in /  0mm
20:59 7.7 °F /  -13.5 °C 3.1 °F /  -16.1 °C 29.93in /  1013.4hPa North 6.0mph /  9.7km/h 12.0mph /  19.3km/h 81% 0.00in /  0mm
21:04 7.1 °F /  -13.8 °C 2.5 °F /  -16.4 °C 29.93in /  1013.4hPa NW 4.0mph /  6.4km/h 14.0mph /  22.5km/h 81% 0.00in /  0mm
21:09 6.7 °F /  -14.1 °C 2.1 °F /  -16.6 °C 29.93in /  1013.4hPa NNW 6.0mph /  9.7km/h 14.0mph /  22.5km/h 81% 0.00in /  0mm
21:19 6.3 °F /  -14.3 °C 1.7 °F /  -16.8 °C 29.93in /  1013.4hPa NW 6.0mph /  9.7km/h 16.0mph /  25.7km/h 81% 0.00in /  0mm
21:24 6.2 °F /  -14.3 °C 1.6 °F /  -16.9 °C 29.93in /  1013.4hPa NW 6.0mph /  9.7km/h 15.0mph /  24.1km/h 81% 0.00in /  0mm
21:29 6.1 °F /  -14.4 °C 1.5 °F /  -16.9 °C 29.93in /  1013.4hPa NW 5.0mph /  8km/h 11.0mph /  17.7km/h 81% 0.00in /  0mm
21:34 6.2 °F /  -14.3 °C 1.6 °F /  -16.9 °C 29.94in /  1013.8hPa NW 4.0mph /  6.4km/h 13.0mph /  20.9km/h 81% 0.00in /  0mm
21:44 6.0 °F /  -14.4 °C 1.4 °F /  -17 °C 29.94in /  1013.8hPa NNW 5.0mph /  8km/h 12.0mph /  19.3km/h 81% 0.00in /  0mm
21:54 5.8 °F /  -14.6 °C 1.2 °F /  -17.1 °C 29.94in /  1013.8hPa NNW 7.0mph /  11.3km/h 14.0mph /  22.5km/h 81% 0.00in /  0mm
21:59 5.8 °F /  -14.6 °C 1.2 °F /  -17.1 °C 29.94in /  1013.8hPa WNW 10.0mph /  16.1km/h 15.0mph /  24.1km/h 81% 0.00in /  0mm
22:04 5.7 °F /  -14.6 °C 1.1 °F /  -17.2 °C 29.94in /  1013.8hPa NW 4.0mph /  6.4km/h 16.0mph /  25.7km/h 81% 0.00in /  0mm
22:09 5.6 °F /  -14.7 °C 1.0 °F /  -17.2 °C 29.94in /  1013.8hPa NW 8.0mph /  12.9km/h 16.0mph /  25.7km/h 81% 0.00in /  0mm
22:19 5.2 °F /  -14.9 °C 0.6 °F /  -17.4 °C 29.94in /  1013.8hPa North 6.0mph /  9.7km/h 17.0mph /  27.4km/h 81% 0.00in /  0mm
22:24 5.1 °F /  -14.9 °C 0.5 °F /  -17.5 °C 29.95in /  1014.1hPa NW 8.0mph /  12.9km/h 17.0mph /  27.4km/h 81% 0.00in /  0mm
22:29 5.0 °F /  -15 °C 0.4 °F /  -17.6 °C 29.95in /  1014.1hPa NW 8.0mph /  12.9km/h 14.0mph /  22.5km/h 81% 0.00in /  0mm
22:34 4.8 °F /  -15.1 °C 0.2 °F /  -17.7 °C 29.95in /  1014.1hPa NW 7.0mph /  11.3km/h 18.0mph /  29km/h 81% 0.00in /  0mm
22:39 4.6 °F /  -15.2 °C 0.1 °F /  -17.7 °C 29.95in /  1014.1hPa NW 7.0mph /  11.3km/h 18.0mph /  29km/h 81% 0.00in /  0mm
22:44 4.4 °F /  -15.3 °C -0.1 °F /  -17.8 °C 29.94in /  1013.8hPa NW 8.0mph /  12.9km/h 17.0mph /  27.4km/h 81% 0.00in /  0mm
22:59 4.0 °F /  -15.6 °C -0.8 °F /  -18.2 °C 29.94in /  1013.8hPa NW 7.0mph /  11.3km/h 18.0mph /  29km/h 80% 0.00in /  0mm
23:04 4.0 °F /  -15.6 °C -0.8 °F /  -18.2 °C 29.94in /  1013.8hPa NW 9.0mph /  14.5km/h 16.0mph /  25.7km/h 80% 0.00in /  0mm
23:09 3.9 °F /  -15.6 °C -0.9 °F /  -18.3 °C 29.95in /  1014.1hPa NW 8.0mph /  12.9km/h 18.0mph /  29km/h 80% 0.00in /  0mm
23:14 3.9 °F /  -15.6 °C -0.9 °F /  -18.3 °C 29.95in /  1014.1hPa NW 7.0mph /  11.3km/h 19.0mph /  30.6km/h 80% 0.00in /  0mm
23:19 3.9 °F /  -15.6 °C -0.9 °F /  -18.3 °C 29.95in /  1014.1hPa WNW 10.0mph /  16.1km/h 19.0mph /  30.6km/h 80% 0.00in /  0mm
23:24 3.9 °F /  -15.6 °C -0.9 °F /  -18.3 °C 29.95in /  1014.1hPa North 5.0mph /  8km/h 17.0mph /  27.4km/h 80% 0.00in /  0mm
23:29 3.9 °F /  -15.6 °C -0.9 °F /  -18.3 °C 29.95in /  1014.1hPa West 11.0mph /  17.7km/h 16.0mph /  25.7km/h 80% 0.00in /  0mm
23:34 3.8 °F /  -15.7 °C -1.0 °F /  -18.3 °C 29.95in /  1014.1hPa NW 9.0mph /  14.5km/h 15.0mph /  24.1km/h 80% 0.00in /  0mm
23:39 3.7 °F /  -15.7 °C -1.1 °F /  -18.4 °C 29.95in /  1014.1hPa NW 9.0mph /  14.5km/h 18.0mph /  29km/h 80% 0.00in /  0mm
23:44 3.7 °F /  -15.7 °C -1.4 °F /  -18.6 °C 29.94in /  1013.8hPa WNW 8.0mph /  12.9km/h 18.0mph /  29km/h 79% 0.00in /  0mm
23:49 3.5 °F /  -15.8 °C -1.6 °F /  -18.7 °C 29.94in /  1013.8hPa NW 8.0mph /  12.9km/h 17.0mph /  27.4km/h 79% 0.00in /  0mm
23:54 3.5 °F /  -15.8 °C -1.6 °F /  -18.7 °C 29.94in /  1013.8hPa NW 8.0mph /  12.9km/h 15.0mph /  24.1km/h 79% 0.00in /  0mm
Buffalo, New York, USA
Compliments of Weather Underground - 2.25 mb